Terminal Aerodrome Forecast
Issued by NWS Wilmington, OH

Current Version | Previous Version | Graphics & Text | Print | Product List | Glossary On
Versions: 1 2 3 4 5 6 7 8 9 10 11 12 13 14 15 16
000
FTUS41 KILN 231721
TAFDAY
TAF
KDAY 231721Z 2318/2418 17006KT P6SM SCT045
     FM240000 14005KT P6SM SCT250
     FM241100 17005KT P6SM BKN060
     FM241500 19010KT P6SM SCT050 BKN100=

USA.gov is the U.S. government's official web portal to all federal, state and local government web resources and services.